createdAt,value
2023-05-06T00:00:58.204Z,18.57
2023-05-06T00:03:28.997Z,18.80
2023-05-06T00:05:58.158Z,15.37
2023-05-06T00:08:26.761Z,19.80
2023-05-06T00:10:55.290Z,20.70
2023-05-06T00:13:23.727Z,15.10
2023-05-06T00:15:52.321Z,17.73
2023-05-06T00:18:22.632Z,21.80
2023-05-06T00:20:52.487Z,20.80
2023-05-06T00:23:20.672Z,17.17
2023-05-06T00:25:49.514Z,18.03
2023-05-06T00:28:18.275Z,15.77
2023-05-06T00:30:46.465Z,22.83
2023-05-06T00:33:14.863Z,22.27
2023-05-06T00:35:43.436Z,20.90
2023-05-06T00:38:15.630Z,24.57
2023-05-06T00:40:44.287Z,23.73
2023-05-06T00:43:13.771Z,20.37
2023-05-06T00:45:42.372Z,19.43
2023-05-06T00:48:11.611Z,19.83
2023-05-06T00:50:41.706Z,24.77
2023-05-06T00:53:12.630Z,19.77
2023-05-06T00:55:43.044Z,22.50
2023-05-06T00:58:11.916Z,30.00
2023-05-06T01:00:40.384Z,19.13
2023-05-06T01:03:08.675Z,20.33
2023-05-06T01:05:48.682Z,22.27
2023-05-06T01:08:26.555Z,20.77
2023-05-06T01:10:58.846Z,23.07
2023-05-06T01:13:36.510Z,18.87
2023-05-06T01:16:07.465Z,18.43
2023-05-06T01:18:37.394Z,23.90
2023-05-06T01:21:08.907Z,20.50
2023-05-06T01:23:55.341Z,20.30
2023-05-06T01:26:24.101Z,22.70
2023-05-06T01:28:52.564Z,20.77
2023-05-06T01:31:27.331Z,24.67
2023-05-06T01:34:06.378Z,26.00
2023-05-06T01:36:40.334Z,25.17
2023-05-06T01:39:18.019Z,24.10
2023-05-06T01:41:49.649Z,20.03
2023-05-06T01:44:19.004Z,22.00
2023-05-06T01:46:48.242Z,24.40
2023-05-06T01:49:18.413Z,23.13
2023-05-06T01:51:49.266Z,28.20
2023-05-06T01:54:19.455Z,27.73
2023-05-06T01:56:48.045Z,24.07
2023-05-06T01:59:16.404Z,27.30
2023-05-06T02:01:45.161Z,24.63
2023-05-06T02:04:13.609Z,18.33
2023-05-06T02:06:42.194Z,23.90
2023-05-06T02:09:10.776Z,26.07
2023-05-06T02:11:40.656Z,30.23
2023-05-06T02:14:09.127Z,25.93
2023-05-06T02:16:37.747Z,24.40
2023-05-06T02:19:06.595Z,22.63
2023-05-06T02:21:35.114Z,28.93
2023-05-06T02:24:03.586Z,25.93
2023-05-06T02:26:32.192Z,23.47
2023-05-06T02:29:02.100Z,25.30
2023-05-06T02:31:30.741Z,23.30
2023-05-06T02:33:59.377Z,25.40
2023-05-06T02:36:29.228Z,25.87
2023-05-06T02:38:57.795Z,27.93
2023-05-06T02:41:26.237Z,30.67
2023-05-06T02:43:54.618Z,25.57
2023-05-06T02:46:24.685Z,29.57
2023-05-06T02:48:53.338Z,26.90
2023-05-06T02:51:21.759Z,28.03
2023-05-06T02:53:49.988Z,27.70
2023-05-06T02:56:18.442Z,26.83
2023-05-06T02:58:46.791Z,29.90
2023-05-06T03:01:15.171Z,28.17
2023-05-06T03:03:45.349Z,29.57
2023-05-06T03:06:14.020Z,27.47
2023-05-06T03:08:42.711Z,29.67
2023-05-06T03:11:11.157Z,23.97
2023-05-06T03:13:39.449Z,22.93
2023-05-06T03:16:14.624Z,33.50
2023-05-06T03:18:45.025Z,27.37
2023-05-06T03:21:13.853Z,25.60
2023-05-06T03:23:42.207Z,25.13
2023-05-06T03:26:11.091Z,28.73
2023-05-06T03:28:39.221Z,20.90
2023-05-06T03:31:07.846Z,31.47
2023-05-06T03:33:36.738Z,24.43
2023-05-06T03:36:08.814Z,27.50
2023-05-06T03:38:37.438Z,27.37
2023-05-06T03:41:06.080Z,28.20
2023-05-06T03:43:34.624Z,30.17
2023-05-06T03:46:03.069Z,29.30
2023-05-06T03:48:31.513Z,25.77
2023-05-06T03:50:59.981Z,28.27
2023-05-06T03:53:30.240Z,28.03
2023-05-06T03:55:58.820Z,33.20
2023-05-06T03:58:27.268Z,29.87
2023-05-06T04:00:55.504Z,33.53
2023-05-06T04:03:23.537Z,28.23
2023-05-06T04:05:51.677Z,23.83
2023-05-06T04:08:19.784Z,30.27
2023-05-06T04:10:49.173Z,29.77
2023-05-06T04:13:17.921Z,27.73
2023-05-06T04:15:46.297Z,31.17
2023-05-06T04:18:18.883Z,35.10
2023-05-06T04:20:48.925Z,25.40
2023-05-06T04:23:17.206Z,29.57
2023-05-06T04:25:49.492Z,29.83
2023-05-06T04:28:18.255Z,29.50
2023-05-06T04:30:46.937Z,33.43
2023-05-06T04:33:15.087Z,32.80
2023-05-06T04:35:53.101Z,25.03
2023-05-06T04:38:21.718Z,25.33
2023-05-06T04:40:51.180Z,20.90
2023-05-06T04:43:19.220Z,25.93
2023-05-06T04:45:49.832Z,30.77
2023-05-06T04:48:19.510Z,29.10
2023-05-06T04:50:47.596Z,25.17
2023-05-06T04:53:16.437Z,25.10
2023-05-06T04:55:44.570Z,22.37
2023-05-06T04:58:14.498Z,22.53
2023-05-06T05:00:42.682Z,25.17
2023-05-06T05:03:10.823Z,26.03
2023-05-06T05:05:38.897Z,21.97
2023-05-06T05:08:07.252Z,24.80
2023-05-06T05:10:35.441Z,24.77
2023-05-06T05:13:03.484Z,22.33
2023-05-06T05:15:32.840Z,23.70
2023-05-06T05:18:00.870Z,22.70
2023-05-06T05:20:28.895Z,24.90
2023-05-06T05:22:56.923Z,23.60
2023-05-06T05:25:24.980Z,21.47
2023-05-06T05:27:53.047Z,22.17
2023-05-06T05:30:21.242Z,24.90
2023-05-06T05:32:50.772Z,19.50
2023-05-06T05:35:18.992Z,22.33
2023-05-06T05:37:47.007Z,21.90
2023-05-06T05:40:15.662Z,27.93
2023-05-06T05:42:43.668Z,25.80
2023-05-06T05:45:12.489Z,22.60
2023-05-06T05:47:40.549Z,25.23
2023-05-06T05:50:10.877Z,24.30
2023-05-06T05:52:38.957Z,27.60
2023-05-06T05:55:08.315Z,18.37
2023-05-06T05:57:36.925Z,21.10
2023-05-06T06:00:05.789Z,25.97
2023-05-06T06:02:34.466Z,19.87
2023-05-06T06:05:02.726Z,25.03
2023-05-06T06:07:32.257Z,22.60
2023-05-06T06:10:00.429Z,19.47
2023-05-06T06:12:28.616Z,20.47
2023-05-06T06:14:56.636Z,25.83
2023-05-06T06:17:24.704Z,22.73
2023-05-06T06:19:57.088Z,22.03
2023-05-06T06:22:25.171Z,19.70
2023-05-06T06:24:54.807Z,19.40
2023-05-06T06:27:23.345Z,17.07
2023-05-06T06:29:51.531Z,17.67
2023-05-06T06:32:19.953Z,20.17
2023-05-06T06:34:48.013Z,19.87
2023-05-06T06:37:16.122Z,22.83
2023-05-06T06:39:44.251Z,17.40
2023-05-06T06:42:13.822Z,16.83
2023-05-06T06:44:41.929Z,25.57
2023-05-06T06:47:10.045Z,22.03
2023-05-06T06:49:38.564Z,23.00
2023-05-06T06:52:06.734Z,20.10
2023-05-06T06:54:34.790Z,19.07
2023-05-06T06:57:02.834Z,19.53
2023-05-06T06:59:33.272Z,21.83
2023-05-06T07:02:01.289Z,19.73
2023-05-06T07:04:29.426Z,24.13
2023-05-06T07:06:57.598Z,23.40
2023-05-06T07:09:25.687Z,23.20
2023-05-06T07:11:53.840Z,20.47
2023-05-06T07:14:22.126Z,20.33
2023-05-06T07:16:51.747Z,21.47
2023-05-06T07:19:19.935Z,20.70
2023-05-06T07:21:48.088Z,19.30
2023-05-06T07:24:16.101Z,28.10
2023-05-06T07:26:44.908Z,21.53
2023-05-06T07:29:12.995Z,18.20
2023-05-06T07:31:41.162Z,20.90
2023-05-06T07:34:11.088Z,18.20
2023-05-06T07:36:43.130Z,18.17
2023-05-06T07:39:11.888Z,19.57
2023-05-06T07:41:40.037Z,18.53
2023-05-06T07:44:08.153Z,24.37
2023-05-06T07:46:36.515Z,18.60
2023-05-06T07:49:04.822Z,15.23
2023-05-06T07:51:34.416Z,18.93
2023-05-06T07:54:02.532Z,22.70
2023-05-06T07:56:30.702Z,17.23
2023-05-06T07:58:59.336Z,21.30
2023-05-06T08:01:29.003Z,18.87
2023-05-06T08:03:57.111Z,30.13
2023-05-06T08:06:25.210Z,18.40
2023-05-06T08:08:54.619Z,19.33
2023-05-06T08:11:22.644Z,17.87
2023-05-06T08:13:50.713Z,18.13
2023-05-06T08:16:18.911Z,18.73
2023-05-06T08:18:46.973Z,17.20
2023-05-06T08:21:15.156Z,23.60
2023-05-06T08:23:43.274Z,19.97
2023-05-06T08:26:12.935Z,16.80
2023-05-06T08:28:40.948Z,20.20
2023-05-06T08:31:09.065Z,19.80
2023-05-06T08:33:37.245Z,18.10
2023-05-06T08:36:05.767Z,18.57
2023-05-06T08:38:33.858Z,27.80
2023-05-06T08:41:08.794Z,20.03
2023-05-06T08:43:42.649Z,23.23
2023-05-06T08:46:10.809Z,20.17
2023-05-06T08:48:39.206Z,27.37
2023-05-06T08:51:08.010Z,22.10
2023-05-06T08:53:37.095Z,22.37
2023-05-06T08:56:08.800Z,26.87
2023-05-06T08:58:40.125Z,28.30
2023-05-06T09:01:08.618Z,23.40
2023-05-06T09:03:36.698Z,24.33
2023-05-06T09:06:05.491Z,24.13
2023-05-06T09:08:33.653Z,23.80
2023-05-06T09:11:01.708Z,26.50
2023-05-06T09:13:30.275Z,25.50
2023-05-06T09:15:59.757Z,27.00
2023-05-06T09:18:27.875Z,20.70
2023-05-06T09:20:55.886Z,30.07
2023-05-06T09:23:24.059Z,25.10
2023-05-06T09:25:52.436Z,25.17
2023-05-06T09:28:21.111Z,25.40
2023-05-06T09:30:51.958Z,26.23
2023-05-06T09:33:22.982Z,31.60
2023-05-06T09:35:51.087Z,27.77
2023-05-06T09:38:19.186Z,26.67
2023-05-06T09:40:47.316Z,22.20
2023-05-06T09:43:16.701Z,22.67
2023-05-06T09:45:46.251Z,33.70
2023-05-06T09:48:16.048Z,26.03
2023-05-06T09:50:45.613Z,26.13
2023-05-06T09:53:15.766Z,24.73
2023-05-06T09:55:44.813Z,26.63
2023-05-06T09:58:14.409Z,29.70
2023-05-06T10:00:43.363Z,24.33
2023-05-06T10:03:13.825Z,24.17
2023-05-06T10:05:42.825Z,22.87
2023-05-06T10:08:13.243Z,27.27
2023-05-06T10:10:43.807Z,23.20
2023-05-06T10:13:12.010Z,25.57
2023-05-06T10:15:41.145Z,20.27
2023-05-06T10:18:10.506Z,21.07
2023-05-06T10:20:42.193Z,22.97
2023-05-06T10:23:22.923Z,18.60
2023-05-06T10:25:54.596Z,20.43
2023-05-06T10:28:30.489Z,21.80
2023-05-06T10:31:00.250Z,23.47
2023-05-06T10:33:29.637Z,20.13
2023-05-06T10:36:06.906Z,19.47
2023-05-06T10:38:41.603Z,20.23
2023-05-06T10:41:10.700Z,21.03
2023-05-06T10:43:42.323Z,20.80
2023-05-06T10:46:11.989Z,20.27
2023-05-06T10:48:41.419Z,19.43
2023-05-06T10:51:28.482Z,22.20
2023-05-06T10:54:03.143Z,19.03
2023-05-06T10:56:33.634Z,21.20
2023-05-06T10:59:08.074Z,22.37
2023-05-06T11:01:37.570Z,20.63
2023-05-06T11:04:10.700Z,21.93
2023-05-06T11:06:42.263Z,22.30
2023-05-06T11:09:19.353Z,23.40
2023-05-06T11:12:01.809Z,24.00
2023-05-06T11:14:31.035Z,17.60
2023-05-06T11:17:01.583Z,24.97
2023-05-06T11:19:31.141Z,21.70
2023-05-06T11:22:00.350Z,20.50
2023-05-06T11:24:32.584Z,23.07
2023-05-06T11:27:01.261Z,20.33
2023-05-06T11:29:29.529Z,20.20
2023-05-06T11:31:57.604Z,18.77
2023-05-06T11:34:27.931Z,20.97
2023-05-06T11:37:04.302Z,18.83
2023-05-06T11:39:40.477Z,16.93
2023-05-06T11:42:09.691Z,16.97
2023-05-06T11:44:39.792Z,18.10
2023-05-06T11:47:09.704Z,20.67
2023-05-06T11:49:39.331Z,15.67
2023-05-06T11:52:08.711Z,14.23
2023-05-06T11:54:40.728Z,17.70
2023-05-06T11:57:09.253Z,14.30
2023-05-06T11:59:39.460Z,10.60
2023-05-06T12:02:09.845Z,13.83
2023-05-06T12:04:39.790Z,11.73
2023-05-06T12:07:08.850Z,11.93
2023-05-06T12:09:40.576Z,10.67
2023-05-06T12:12:10.231Z,11.10
2023-05-06T12:14:39.293Z,9.03
2023-05-06T12:17:08.089Z,11.30
2023-05-06T12:19:36.346Z,9.70
2023-05-06T12:22:18.134Z,10.37
2023-05-06T12:24:48.020Z,8.63
2023-05-06T12:27:29.307Z,7.97
2023-05-06T12:29:57.618Z,11.10
2023-05-06T12:32:25.889Z,10.63
2023-05-06T12:34:54.194Z,10.13
2023-05-06T12:37:30.060Z,11.13
2023-05-06T12:39:59.932Z,9.47
2023-05-06T12:42:28.421Z,9.23
2023-05-06T12:44:57.013Z,10.23
2023-05-06T12:47:27.025Z,8.77
2023-05-06T12:49:58.195Z,9.73
2023-05-06T12:52:28.743Z,9.80
2023-05-06T12:54:57.591Z,11.83
2023-05-06T12:57:27.358Z,8.57
2023-05-06T12:59:56.502Z,21.07
2023-05-06T13:02:24.823Z,10.33
2023-05-06T13:04:53.139Z,14.70
2023-05-06T13:07:22.251Z,8.33
2023-05-06T13:09:50.418Z,7.33
2023-05-06T13:12:18.486Z,8.10
2023-05-06T13:14:48.051Z,6.13
2023-05-06T13:17:16.298Z,9.53
2023-05-06T13:19:45.322Z,6.87
2023-05-06T13:22:13.502Z,7.80
2023-05-06T13:24:41.704Z,5.90
2023-05-06T13:27:09.904Z,7.57
2023-05-06T13:29:38.216Z,8.20
2023-05-06T13:32:08.997Z,9.90
2023-05-06T13:34:37.567Z,8.57
2023-05-06T13:37:05.775Z,7.63
2023-05-06T13:39:33.916Z,9.07
2023-05-06T13:42:03.096Z,7.10
2023-05-06T13:44:32.224Z,6.10
2023-05-06T13:47:00.559Z,6.00
2023-05-06T13:49:30.063Z,5.07
2023-05-06T13:51:58.453Z,9.13
2023-05-06T13:54:26.612Z,4.53
2023-05-06T13:56:54.733Z,5.03
2023-05-06T13:59:22.893Z,5.97
2023-05-06T14:01:53.750Z,5.80
2023-05-06T14:04:21.944Z,4.73
2023-05-06T14:06:51.586Z,5.77
2023-05-06T14:09:19.801Z,5.37
2023-05-06T14:11:48.092Z,3.87
2023-05-06T14:14:16.427Z,5.63
2023-05-06T14:16:44.923Z,3.90
2023-05-06T14:19:13.166Z,3.57
2023-05-06T14:21:41.444Z,3.90
2023-05-06T14:24:12.545Z,4.87
2023-05-06T14:26:41.490Z,3.70
2023-05-06T14:29:09.776Z,3.33
2023-05-06T14:31:38.098Z,4.10
2023-05-06T14:34:06.533Z,4.47
2023-05-06T14:36:34.734Z,3.73
2023-05-06T14:39:02.999Z,3.53
2023-05-06T14:41:32.745Z,5.67
2023-05-06T14:44:01.008Z,3.73
2023-05-06T14:46:29.742Z,5.87
2023-05-06T14:48:58.070Z,5.00
2023-05-06T14:51:26.420Z,3.47
2023-05-06T14:53:54.595Z,4.17
2023-05-06T14:56:22.798Z,4.43
2023-05-06T14:58:52.589Z,3.33
2023-05-06T15:01:21.093Z,3.10
2023-05-06T15:03:50.747Z,5.27
2023-05-06T15:06:19.451Z,5.07
2023-05-06T15:08:47.801Z,6.30
2023-05-06T15:11:16.016Z,5.63
2023-05-06T15:13:44.126Z,4.23
2023-05-06T15:16:13.809Z,4.17
2023-05-06T15:18:42.883Z,5.60
2023-05-06T15:21:13.294Z,3.40
2023-05-06T15:23:41.551Z,4.27
2023-05-06T15:26:09.819Z,4.07
2023-05-06T15:28:38.035Z,3.63
2023-05-06T15:31:06.312Z,3.50
2023-05-06T15:33:36.048Z,3.40
2023-05-06T15:36:04.182Z,3.10
2023-05-06T15:39:00.344Z,3.20
2023-05-06T15:41:30.462Z,4.03
2023-05-06T15:43:59.485Z,3.50
2023-05-06T15:46:28.023Z,5.67
2023-05-06T15:49:17.384Z,4.70
2023-05-06T15:51:46.376Z,6.10
2023-05-06T15:54:16.784Z,47.63
2023-05-06T15:56:45.153Z,4.90
2023-05-06T15:59:13.652Z,7.73
2023-05-06T16:02:24.712Z,4.80
2023-05-06T16:04:32.785Z,5.23
2023-05-06T16:07:01.414Z,7.07
2023-05-06T16:09:30.047Z,3.90
2023-05-06T16:11:58.386Z,3.63
2023-05-06T16:14:26.741Z,4.17
2023-05-06T16:16:55.036Z,3.97
2023-05-06T16:19:23.509Z,6.27
2023-05-06T16:21:53.541Z,3.83
2023-05-06T16:24:21.901Z,4.20
2023-05-06T16:26:50.374Z,5.07
2023-05-06T16:29:20.672Z,5.20
2023-05-06T16:31:49.822Z,4.70
2023-05-06T16:34:18.309Z,4.00
2023-05-06T16:36:46.721Z,6.53
2023-05-06T16:39:16.437Z,4.50
2023-05-06T16:41:44.704Z,4.67
2023-05-06T16:44:12.978Z,5.30
2023-05-06T16:46:41.257Z,4.60
2023-05-06T16:49:09.674Z,5.07
2023-05-06T16:51:38.125Z,4.83
2023-05-06T16:54:06.490Z,4.40
2023-05-06T16:56:48.034Z,6.07
2023-05-06T16:59:16.859Z,5.97
2023-05-06T17:01:45.373Z,4.93
2023-05-06T17:04:13.752Z,4.77
2023-05-06T17:06:42.160Z,4.80
2023-05-06T17:09:11.106Z,5.03
2023-05-06T17:11:41.126Z,4.40
2023-05-06T17:14:09.443Z,4.33
2023-05-06T17:16:38.045Z,6.23
2023-05-06T17:19:07.103Z,7.70
2023-05-06T17:21:35.822Z,5.23
2023-05-06T17:24:04.324Z,5.67
2023-05-06T17:26:33.988Z,6.67
2023-05-06T17:29:04.126Z,5.20
2023-05-06T17:31:32.822Z,5.13
2023-05-06T17:34:02.185Z,5.23
2023-05-06T17:36:31.264Z,4.37
2023-05-06T17:39:04.736Z,5.83
2023-05-06T17:41:33.788Z,5.80
2023-05-06T17:44:03.625Z,7.53
2023-05-06T17:46:33.535Z,6.13
2023-05-06T17:49:02.155Z,5.70
2023-05-06T17:51:30.430Z,5.60
2023-05-06T17:53:59.408Z,5.87
2023-05-06T17:56:28.484Z,5.73
2023-05-06T17:59:01.537Z,6.00
2023-05-06T18:01:31.578Z,6.90
2023-05-06T18:04:00.371Z,6.47
2023-05-06T18:06:29.063Z,6.67
2023-05-06T18:08:57.345Z,6.03
2023-05-06T18:11:25.746Z,6.07
2023-05-06T18:13:54.308Z,5.60
2023-05-06T18:16:22.743Z,5.70
2023-05-06T18:18:52.577Z,7.57
2023-05-06T18:21:20.844Z,5.60
2023-05-06T18:23:51.464Z,6.47
2023-05-06T18:26:42.667Z,7.77
2023-05-06T18:29:10.802Z,6.00
2023-05-06T18:31:39.114Z,6.47
2023-05-06T18:34:08.768Z,6.53
2023-05-06T18:36:37.377Z,5.90
2023-05-06T18:39:05.952Z,7.03
2023-05-06T18:41:34.645Z,7.20
2023-05-06T18:44:04.441Z,6.37
2023-05-06T18:46:33.806Z,8.30
2023-05-06T18:49:02.525Z,8.27
2023-05-06T18:51:32.573Z,8.23
2023-05-06T18:54:01.534Z,7.40
2023-05-06T18:56:30.177Z,9.00
2023-05-06T18:58:58.659Z,7.80
2023-05-06T19:01:27.594Z,8.60
2023-05-06T19:03:57.004Z,9.30
2023-05-06T19:06:25.322Z,8.47
2023-05-06T19:08:55.203Z,9.73
2023-05-06T19:11:23.519Z,10.07
2023-05-06T19:13:52.304Z,9.70
2023-05-06T19:16:20.781Z,9.27
2023-05-06T19:18:49.151Z,9.80
2023-05-06T19:21:18.752Z,10.30
2023-05-06T19:23:47.137Z,11.50
2023-05-06T19:26:17.065Z,9.17
2023-05-06T19:28:45.411Z,11.50
2023-05-06T19:31:13.861Z,12.00
2023-05-06T19:33:43.776Z,10.07
2023-05-06T19:36:12.179Z,12.90
2023-05-06T19:38:40.705Z,13.40
2023-05-06T19:41:10.745Z,13.07
2023-05-06T19:43:44.835Z,12.13
2023-05-06T19:46:13.773Z,12.07
2023-05-06T19:48:42.040Z,11.10
2023-05-06T19:51:10.624Z,15.90
2023-05-06T19:53:38.949Z,12.13
2023-05-06T19:56:10.874Z,11.93
2023-05-06T19:58:39.346Z,15.33
2023-05-06T20:01:09.083Z,14.43
2023-05-06T20:03:37.593Z,15.40
2023-05-06T20:06:06.221Z,14.03
2023-05-06T20:08:35.461Z,15.30
2023-05-06T20:11:03.942Z,15.87
2023-05-06T20:13:32.300Z,15.40
2023-05-06T20:16:02.054Z,16.57
2023-05-06T20:18:32.145Z,17.37
2023-05-06T20:21:00.651Z,17.27
2023-05-06T20:23:29.170Z,18.80
2023-05-06T20:25:58.065Z,18.87
2023-05-06T20:28:29.067Z,20.73
2023-05-06T20:30:59.889Z,16.37
2023-05-06T20:33:28.265Z,19.43
2023-05-06T20:35:57.949Z,18.10
2023-05-06T20:38:27.580Z,20.73
2023-05-06T20:40:56.016Z,18.90
2023-05-06T20:43:24.352Z,21.80
2023-05-06T20:45:52.855Z,21.27
2023-05-06T20:48:21.094Z,20.47
2023-05-06T20:50:49.561Z,20.13
2023-05-06T20:53:19.293Z,18.40
2023-05-06T20:55:47.840Z,17.83
2023-05-06T20:58:16.398Z,17.47
2023-05-06T21:00:44.904Z,22.37
2023-05-06T21:03:13.441Z,20.27
2023-05-06T21:05:42.102Z,19.00
2023-05-06T21:08:11.231Z,24.33
2023-05-06T21:10:40.906Z,20.53
2023-05-06T21:13:09.281Z,21.13
2023-05-06T21:15:38.576Z,18.97
2023-05-06T21:18:06.979Z,19.83
2023-05-06T21:20:35.335Z,20.87
2023-05-06T21:23:04.049Z,22.03
2023-05-06T21:25:32.371Z,24.53
2023-05-06T21:28:05.460Z,23.83
2023-05-06T21:30:35.673Z,24.93
2023-05-06T21:33:05.014Z,22.03
2023-05-06T21:35:33.743Z,22.60
2023-05-06T21:38:02.133Z,21.57
2023-05-06T21:40:30.477Z,23.03
2023-05-06T21:42:58.827Z,26.30
2023-05-06T21:45:29.151Z,23.90
2023-05-06T21:47:57.685Z,22.70
2023-05-06T21:50:25.981Z,26.73
2023-05-06T21:52:54.162Z,24.67
2023-05-06T21:55:22.437Z,23.43
2023-05-06T21:57:50.790Z,23.77
2023-05-06T22:00:19.338Z,22.83
2023-05-06T22:02:49.012Z,22.13
2023-05-06T22:05:17.684Z,22.77
2023-05-06T22:07:45.844Z,20.33
2023-05-06T22:10:14.120Z,21.37
2023-05-06T22:12:42.425Z,21.83
2023-05-06T22:15:11.680Z,22.63
2023-05-06T22:17:40.147Z,22.90
2023-05-06T22:20:12.020Z,19.73
2023-05-06T22:22:40.423Z,22.63
2023-05-06T22:25:09.444Z,22.43
2023-05-06T22:27:37.873Z,24.07
2023-05-06T22:30:08.154Z,20.00
2023-05-06T22:32:36.377Z,19.47
2023-05-06T22:35:04.779Z,18.87
2023-05-06T22:37:34.281Z,19.17
2023-05-06T22:40:02.425Z,21.03
2023-05-06T22:42:30.843Z,22.53
2023-05-06T22:44:58.952Z,20.73
2023-05-06T22:47:27.136Z,20.93
2023-05-06T22:49:55.749Z,22.57
2023-05-06T22:52:25.684Z,20.70
2023-05-06T22:54:55.636Z,20.37
2023-05-06T22:57:25.648Z,18.60
2023-05-06T22:59:54.284Z,18.77
2023-05-06T23:02:22.886Z,20.03
2023-05-06T23:04:51.540Z,20.23
2023-05-06T23:07:20.006Z,20.43
2023-05-06T23:09:48.497Z,18.93
2023-05-06T23:12:18.309Z,21.67
2023-05-06T23:14:46.805Z,18.67
2023-05-06T23:17:15.130Z,20.03
2023-05-06T23:19:44.179Z,20.37
2023-05-06T23:22:13.831Z,19.53
2023-05-06T23:24:42.331Z,18.80
2023-05-06T23:27:10.722Z,20.10
2023-05-06T23:29:40.361Z,19.33
2023-05-06T23:32:08.520Z,21.93
2023-05-06T23:34:36.809Z,21.77
2023-05-06T23:37:05.029Z,21.33
2023-05-06T23:39:33.248Z,16.93
2023-05-06T23:42:02.321Z,19.07
2023-05-06T23:44:30.810Z,18.67
2023-05-06T23:47:00.914Z,18.23
2023-05-06T23:49:29.187Z,20.47
2023-05-06T23:51:57.527Z,18.70
2023-05-06T23:54:26.032Z,15.40
2023-05-06T23:56:54.470Z,17.73
2023-05-06T23:59:22.581Z,14.73
